sensor_id;sensor_type;location;lat;lon;timestamp;P1;durP1;ratioP1;P2;durP2;ratioP2
59169;SDS011;52474;52.236;5.114;2023-05-10T00:01:24;108.40;;;29.48;;
59169;SDS011;52474;52.236;5.114;2023-05-10T00:03:49;110.28;;;28.27;;
59169;SDS011;52474;52.236;5.114;2023-05-10T00:06:15;112.35;;;28.15;;
59169;SDS011;52474;52.236;5.114;2023-05-10T00:08:41;94.25;;;27.67;;
59169;SDS011;52474;52.236;5.114;2023-05-10T00:11:06;101.13;;;30.00;;
59169;SDS011;52474;52.236;5.114;2023-05-10T00:13:32;95.70;;;29.52;;
59169;SDS011;52474;52.236;5.114;2023-05-10T00:15:58;103.70;;;28.42;;
59169;SDS011;52474;52.236;5.114;2023-05-10T00:18:24;109.07;;;28.67;;
59169;SDS011;52474;52.236;5.114;2023-05-10T00:20:49;106.55;;;27.95;;
59169;SDS011;52474;52.236;5.114;2023-05-10T00:23:15;102.47;;;28.52;;
59169;SDS011;52474;52.236;5.114;2023-05-10T00:25:41;104.32;;;28.48;;
59169;SDS011;52474;52.236;5.114;2023-05-10T00:28:06;102.57;;;27.55;;
59169;SDS011;52474;52.236;5.114;2023-05-10T00:30:32;94.15;;;28.20;;
59169;SDS011;52474;52.236;5.114;2023-05-10T00:32:58;104.97;;;30.02;;
59169;SDS011;52474;52.236;5.114;2023-05-10T00:35:23;91.32;;;27.73;;
59169;SDS011;52474;52.236;5.114;2023-05-10T00:37:49;97.57;;;30.05;;
59169;SDS011;52474;52.236;5.114;2023-05-10T00:40:15;100.38;;;31.45;;
59169;SDS011;52474;52.236;5.114;2023-05-10T00:42:44;94.53;;;30.63;;
59169;SDS011;52474;52.236;5.114;2023-05-10T00:45:10;93.38;;;29.88;;
59169;SDS011;52474;52.236;5.114;2023-05-10T00:47:37;94.25;;;29.95;;
59169;SDS011;52474;52.236;5.114;2023-05-10T00:50:03;97.53;;;30.10;;
59169;SDS011;52474;52.236;5.114;2023-05-10T00:52:30;95.00;;;31.88;;
59169;SDS011;52474;52.236;5.114;2023-05-10T00:54:57;101.95;;;33.47;;
59169;SDS011;52474;52.236;5.114;2023-05-10T00:57:24;95.68;;;33.30;;
59169;SDS011;52474;52.236;5.114;2023-05-10T00:59:50;94.60;;;34.28;;
59169;SDS011;52474;52.236;5.114;2023-05-10T01:02:15;101.45;;;33.92;;
59169;SDS011;52474;52.236;5.114;2023-05-10T01:04:41;96.47;;;34.33;;
59169;SDS011;52474;52.236;5.114;2023-05-10T01:07:08;87.05;;;33.63;;
59169;SDS011;52474;52.236;5.114;2023-05-10T01:09:34;98.93;;;35.17;;
59169;SDS011;52474;52.236;5.114;2023-05-10T01:12:01;88.15;;;34.05;;
59169;SDS011;52474;52.236;5.114;2023-05-10T01:14:28;85.35;;;33.53;;
59169;SDS011;52474;52.236;5.114;2023-05-10T01:16:55;96.25;;;35.03;;
59169;SDS011;52474;52.236;5.114;2023-05-10T01:19:30;97.00;;;35.88;;
59169;SDS011;52474;52.236;5.114;2023-05-10T01:32:48;84.22;;;34.95;;
59169;SDS011;52474;52.236;5.114;2023-05-10T01:37:50;94.07;;;35.45;;
59169;SDS011;52474;52.236;5.114;2023-05-10T01:40:42;93.85;;;34.45;;
59169;SDS011;52474;52.236;5.114;2023-05-10T01:43:19;93.50;;;37.45;;
59169;SDS011;52474;52.236;5.114;2023-05-10T01:45:58;98.68;;;36.42;;
59169;SDS011;52474;52.236;5.114;2023-05-10T01:48:30;89.70;;;35.42;;
59169;SDS011;52474;52.236;5.114;2023-05-10T01:50:59;100.32;;;36.45;;
59169;SDS011;52474;52.236;5.114;2023-05-10T01:53:25;110.43;;;35.63;;
59169;SDS011;52474;52.236;5.114;2023-05-10T01:55:52;110.72;;;36.38;;
59169;SDS011;52474;52.236;5.114;2023-05-10T01:58:38;109.43;;;35.70;;
59169;SDS011;52474;52.236;5.114;2023-05-10T02:01:07;104.47;;;36.05;;
59169;SDS011;52474;52.236;5.114;2023-05-10T02:03:35;101.60;;;31.95;;
59169;SDS011;52474;52.236;5.114;2023-05-10T02:06:02;101.38;;;34.67;;
59169;SDS011;52474;52.236;5.114;2023-05-10T02:08:30;107.03;;;37.00;;
59169;SDS011;52474;52.236;5.114;2023-05-10T02:10:58;116.60;;;37.03;;
59169;SDS011;52474;52.236;5.114;2023-05-10T02:13:25;106.05;;;34.33;;
59169;SDS011;52474;52.236;5.114;2023-05-10T02:15:53;94.65;;;36.83;;
59169;SDS011;52474;52.236;5.114;2023-05-10T02:18:20;97.68;;;35.00;;
59169;SDS011;52474;52.236;5.114;2023-05-10T02:20:49;89.70;;;33.55;;
59169;SDS011;52474;52.236;5.114;2023-05-10T02:23:16;94.03;;;33.85;;
59169;SDS011;52474;52.236;5.114;2023-05-10T02:25:43;92.13;;;35.90;;
59169;SDS011;52474;52.236;5.114;2023-05-10T02:28:10;98.88;;;34.88;;
59169;SDS011;52474;52.236;5.114;2023-05-10T02:30:38;101.55;;;34.72;;
59169;SDS011;52474;52.236;5.114;2023-05-10T02:33:04;95.45;;;33.40;;
59169;SDS011;52474;52.236;5.114;2023-05-10T02:35:31;95.70;;;33.78;;
59169;SDS011;52474;52.236;5.114;2023-05-10T02:37:58;89.18;;;32.78;;
59169;SDS011;52474;52.236;5.114;2023-05-10T02:40:25;92.57;;;32.58;;
59169;SDS011;52474;52.236;5.114;2023-05-10T02:42:53;107.22;;;36.25;;
59169;SDS011;52474;52.236;5.114;2023-05-10T02:45:20;83.22;;;31.38;;
59169;SDS011;52474;52.236;5.114;2023-05-10T02:47:50;88.70;;;32.22;;
59169;SDS011;52474;52.236;5.114;2023-05-10T02:50:15;76.75;;;30.00;;
59169;SDS011;52474;52.236;5.114;2023-05-10T02:52:46;71.63;;;28.92;;
59169;SDS011;52474;52.236;5.114;2023-05-10T02:55:15;75.18;;;29.63;;
59169;SDS011;52474;52.236;5.114;2023-05-10T02:57:48;79.00;;;29.55;;
59169;SDS011;52474;52.236;5.114;2023-05-10T03:00:17;91.13;;;30.27;;
59169;SDS011;52474;52.236;5.114;2023-05-10T03:02:43;101.85;;;33.17;;
59169;SDS011;52474;52.236;5.114;2023-05-10T03:05:09;117.10;;;33.40;;
59169;SDS011;52474;52.236;5.114;2023-05-10T03:07:35;125.13;;;33.60;;
59169;SDS011;52474;52.236;5.114;2023-05-10T03:10:01;122.70;;;34.00;;
59169;SDS011;52474;52.236;5.114;2023-05-10T03:12:41;149.48;;;33.38;;
59169;SDS011;52474;52.236;5.114;2023-05-10T03:17:52;161.27;;;34.15;;
59169;SDS011;52474;52.236;5.114;2023-05-10T03:20:47;148.95;;;33.17;;
59169;SDS011;52474;52.236;5.114;2023-05-10T03:25:52;148.13;;;32.30;;
59169;SDS011;52474;52.236;5.114;2023-05-10T03:28:18;158.52;;;32.95;;
59169;SDS011;52474;52.236;5.114;2023-05-10T03:30:46;129.05;;;32.40;;
59169;SDS011;52474;52.236;5.114;2023-05-10T03:33:12;116.65;;;31.58;;
59169;SDS011;52474;52.236;5.114;2023-05-10T03:35:42;127.57;;;27.73;;
59169;SDS011;52474;52.236;5.114;2023-05-10T03:38:09;134.85;;;28.17;;
59169;SDS011;52474;52.236;5.114;2023-05-10T03:40:35;149.68;;;27.05;;
59169;SDS011;52474;52.236;5.114;2023-05-10T03:43:01;147.93;;;27.83;;
59169;SDS011;52474;52.236;5.114;2023-05-10T03:45:27;133.98;;;27.13;;
59169;SDS011;52474;52.236;5.114;2023-05-10T03:47:52;148.02;;;27.20;;
59169;SDS011;52474;52.236;5.114;2023-05-10T03:50:19;140.25;;;28.33;;
59169;SDS011;52474;52.236;5.114;2023-05-10T03:52:45;146.63;;;27.05;;
59169;SDS011;52474;52.236;5.114;2023-05-10T03:55:11;171.70;;;28.42;;
59169;SDS011;52474;52.236;5.114;2023-05-10T03:57:37;170.07;;;31.05;;
59169;SDS011;52474;52.236;5.114;2023-05-10T04:00:03;168.23;;;30.45;;
59169;SDS011;52474;52.236;5.114;2023-05-10T04:02:39;134.23;;;27.58;;
59169;SDS011;52474;52.236;5.114;2023-05-10T04:05:08;144.80;;;30.98;;
59169;SDS011;52474;52.236;5.114;2023-05-10T04:07:34;133.68;;;27.33;;
59169;SDS011;52474;52.236;5.114;2023-05-10T04:10:00;130.52;;;29.08;;
59169;SDS011;52474;52.236;5.114;2023-05-10T04:12:26;136.55;;;28.08;;
59169;SDS011;52474;52.236;5.114;2023-05-10T04:14:51;142.32;;;28.15;;
59169;SDS011;52474;52.236;5.114;2023-05-10T04:17:17;140.07;;;28.65;;
59169;SDS011;52474;52.236;5.114;2023-05-10T04:19:43;160.43;;;28.17;;
59169;SDS011;52474;52.236;5.114;2023-05-10T04:22:08;135.25;;;27.85;;
59169;SDS011;52474;52.236;5.114;2023-05-10T04:24:34;134.02;;;28.48;;
59169;SDS011;52474;52.236;5.114;2023-05-10T04:27:00;131.52;;;28.17;;
59169;SDS011;52474;52.236;5.114;2023-05-10T04:29:25;116.28;;;26.83;;
59169;SDS011;52474;52.236;5.114;2023-05-10T04:31:51;116.97;;;28.95;;
59169;SDS011;52474;52.236;5.114;2023-05-10T04:34:20;116.57;;;29.27;;
59169;SDS011;52474;52.236;5.114;2023-05-10T04:36:46;120.45;;;31.25;;
59169;SDS011;52474;52.236;5.114;2023-05-10T04:39:11;118.55;;;29.67;;
59169;SDS011;52474;52.236;5.114;2023-05-10T04:41:37;107.10;;;30.27;;
59169;SDS011;52474;52.236;5.114;2023-05-10T04:44:03;91.90;;;32.33;;
59169;SDS011;52474;52.236;5.114;2023-05-10T04:46:29;81.93;;;27.10;;
59169;SDS011;52474;52.236;5.114;2023-05-10T04:48:55;76.65;;;25.42;;
59169;SDS011;52474;52.236;5.114;2023-05-10T04:51:20;76.30;;;26.05;;
59169;SDS011;52474;52.236;5.114;2023-05-10T04:53:46;97.28;;;27.80;;
59169;SDS011;52474;52.236;5.114;2023-05-10T04:56:12;87.88;;;28.70;;
59169;SDS011;52474;52.236;5.114;2023-05-10T04:58:37;80.78;;;22.70;;
59169;SDS011;52474;52.236;5.114;2023-05-10T05:01:06;53.85;;;18.08;;
59169;SDS011;52474;52.236;5.114;2023-05-10T05:03:34;59.28;;;17.98;;
59169;SDS011;52474;52.236;5.114;2023-05-10T05:06:00;53.95;;;16.13;;
59169;SDS011;52474;52.236;5.114;2023-05-10T05:08:26;51.67;;;16.20;;
59169;SDS011;52474;52.236;5.114;2023-05-10T05:10:52;45.63;;;15.48;;
59169;SDS011;52474;52.236;5.114;2023-05-10T05:13:18;48.50;;;16.10;;
59169;SDS011;52474;52.236;5.114;2023-05-10T05:15:43;47.67;;;15.68;;
59169;SDS011;52474;52.236;5.114;2023-05-10T05:18:09;39.35;;;14.45;;
59169;SDS011;52474;52.236;5.114;2023-05-10T05:20:35;42.40;;;15.85;;
59169;SDS011;52474;52.236;5.114;2023-05-10T05:23:01;38.00;;;17.08;;
59169;SDS011;52474;52.236;5.114;2023-05-10T05:25:27;41.83;;;16.98;;
59169;SDS011;52474;52.236;5.114;2023-05-10T05:27:52;39.38;;;15.00;;
59169;SDS011;52474;52.236;5.114;2023-05-10T05:30:18;41.22;;;16.60;;
59169;SDS011;52474;52.236;5.114;2023-05-10T05:32:44;45.05;;;15.38;;
59169;SDS011;52474;52.236;5.114;2023-05-10T05:35:10;38.22;;;13.98;;
59169;SDS011;52474;52.236;5.114;2023-05-10T05:37:36;33.45;;;13.02;;
59169;SDS011;52474;52.236;5.114;2023-05-10T05:40:02;30.33;;;12.43;;
59169;SDS011;52474;52.236;5.114;2023-05-10T05:42:28;29.73;;;11.80;;
59169;SDS011;52474;52.236;5.114;2023-05-10T05:44:55;32.42;;;12.35;;
59169;SDS011;52474;52.236;5.114;2023-05-10T05:47:21;29.13;;;11.63;;
59169;SDS011;52474;52.236;5.114;2023-05-10T05:49:47;28.55;;;11.20;;
59169;SDS011;52474;52.236;5.114;2023-05-10T05:52:13;28.00;;;11.73;;
59169;SDS011;52474;52.236;5.114;2023-05-10T05:54:38;29.88;;;12.02;;
59169;SDS011;52474;52.236;5.114;2023-05-10T05:57:04;32.03;;;12.07;;
59169;SDS011;52474;52.236;5.114;2023-05-10T05:59:30;35.63;;;14.65;;
59169;SDS011;52474;52.236;5.114;2023-05-10T06:01:55;44.17;;;14.40;;
59169;SDS011;52474;52.236;5.114;2023-05-10T06:04:21;39.47;;;13.38;;
59169;SDS011;52474;52.236;5.114;2023-05-10T06:06:47;38.95;;;14.63;;
59169;SDS011;52474;52.236;5.114;2023-05-10T06:09:12;41.33;;;14.73;;
59169;SDS011;52474;52.236;5.114;2023-05-10T06:11:38;42.53;;;15.55;;
59169;SDS011;52474;52.236;5.114;2023-05-10T06:14:04;37.88;;;14.43;;
59169;SDS011;52474;52.236;5.114;2023-05-10T06:16:32;46.13;;;14.85;;
59169;SDS011;52474;52.236;5.114;2023-05-10T06:18:58;39.72;;;15.98;;
59169;SDS011;52474;52.236;5.114;2023-05-10T06:21:23;39.85;;;14.77;;
59169;SDS011;52474;52.236;5.114;2023-05-10T06:23:49;37.95;;;14.85;;
59169;SDS011;52474;52.236;5.114;2023-05-10T06:26:15;38.85;;;14.38;;
59169;SDS011;52474;52.236;5.114;2023-05-10T06:28:41;38.60;;;14.13;;
59169;SDS011;52474;52.236;5.114;2023-05-10T06:31:06;35.95;;;13.95;;
59169;SDS011;52474;52.236;5.114;2023-05-10T06:33:32;34.47;;;13.88;;
59169;SDS011;52474;52.236;5.114;2023-05-10T06:35:58;35.58;;;14.15;;
59169;SDS011;52474;52.236;5.114;2023-05-10T06:38:35;35.90;;;14.50;;
59169;SDS011;52474;52.236;5.114;2023-05-10T06:41:01;29.25;;;13.90;;
59169;SDS011;52474;52.236;5.114;2023-05-10T06:43:26;29.70;;;12.57;;
59169;SDS011;52474;52.236;5.114;2023-05-10T06:45:53;27.65;;;12.88;;
59169;SDS011;52474;52.236;5.114;2023-05-10T06:48:19;29.20;;;11.88;;
59169;SDS011;52474;52.236;5.114;2023-05-10T06:50:45;30.67;;;13.25;;
59169;SDS011;52474;52.236;5.114;2023-05-10T06:53:11;32.15;;;13.50;;
59169;SDS011;52474;52.236;5.114;2023-05-10T06:55:37;30.92;;;12.65;;
59169;SDS011;52474;52.236;5.114;2023-05-10T06:58:03;27.80;;;11.73;;
59169;SDS011;52474;52.236;5.114;2023-05-10T07:00:28;28.30;;;13.32;;
59169;SDS011;52474;52.236;5.114;2023-05-10T07:02:54;29.38;;;13.30;;
59169;SDS011;52474;52.236;5.114;2023-05-10T07:05:20;29.35;;;12.98;;
59169;SDS011;52474;52.236;5.114;2023-05-10T07:07:46;31.33;;;12.77;;
59169;SDS011;52474;52.236;5.114;2023-05-10T07:10:12;29.48;;;13.90;;
59169;SDS011;52474;52.236;5.114;2023-05-10T07:12:37;26.85;;;12.07;;
59169;SDS011;52474;52.236;5.114;2023-05-10T07:15:04;28.13;;;12.18;;
59169;SDS011;52474;52.236;5.114;2023-05-10T07:17:30;27.88;;;12.98;;
59169;SDS011;52474;52.236;5.114;2023-05-10T07:19:56;31.20;;;13.00;;
59169;SDS011;52474;52.236;5.114;2023-05-10T07:22:21;29.15;;;12.98;;
59169;SDS011;52474;52.236;5.114;2023-05-10T07:24:47;28.83;;;12.68;;
59169;SDS011;52474;52.236;5.114;2023-05-10T07:27:13;23.48;;;11.77;;
59169;SDS011;52474;52.236;5.114;2023-05-10T07:29:39;28.63;;;14.13;;
59169;SDS011;52474;52.236;5.114;2023-05-10T07:32:04;23.48;;;11.90;;
59169;SDS011;52474;52.236;5.114;2023-05-10T07:34:31;29.42;;;11.73;;
59169;SDS011;52474;52.236;5.114;2023-05-10T07:36:58;24.42;;;12.05;;
59169;SDS011;52474;52.236;5.114;2023-05-10T07:39:25;27.10;;;11.88;;
59169;SDS011;52474;52.236;5.114;2023-05-10T07:41:52;24.83;;;11.95;;
59169;SDS011;52474;52.236;5.114;2023-05-10T07:44:18;25.25;;;11.15;;
59169;SDS011;52474;52.236;5.114;2023-05-10T07:46:45;26.25;;;12.32;;
59169;SDS011;52474;52.236;5.114;2023-05-10T07:49:11;29.05;;;12.93;;
59169;SDS011;52474;52.236;5.114;2023-05-10T07:51:37;25.20;;;12.80;;
59169;SDS011;52474;52.236;5.114;2023-05-10T07:54:03;26.98;;;13.13;;
59169;SDS011;52474;52.236;5.114;2023-05-10T07:56:29;24.55;;;11.88;;
59169;SDS011;52474;52.236;5.114;2023-05-10T07:58:57;29.33;;;12.57;;
59169;SDS011;52474;52.236;5.114;2023-05-10T08:01:24;28.45;;;12.05;;
59169;SDS011;52474;52.236;5.114;2023-05-10T08:03:51;24.83;;;12.35;;
59169;SDS011;52474;52.236;5.114;2023-05-10T08:06:18;24.33;;;12.18;;
59169;SDS011;52474;52.236;5.114;2023-05-10T08:08:46;20.27;;;11.18;;
59169;SDS011;52474;52.236;5.114;2023-05-10T08:11:15;20.33;;;11.02;;
59169;SDS011;52474;52.236;5.114;2023-05-10T08:13:44;22.05;;;11.20;;
59169;SDS011;52474;52.236;5.114;2023-05-10T08:16:10;22.85;;;10.90;;
59169;SDS011;52474;52.236;5.114;2023-05-10T08:18:36;18.05;;;10.30;;
59169;SDS011;52474;52.236;5.114;2023-05-10T08:21:03;19.20;;;10.60;;
59169;SDS011;52474;52.236;5.114;2023-05-10T08:23:29;20.40;;;10.48;;
59169;SDS011;52474;52.236;5.114;2023-05-10T08:25:54;18.77;;;10.13;;
59169;SDS011;52474;52.236;5.114;2023-05-10T08:28:20;17.65;;;9.95;;
59169;SDS011;52474;52.236;5.114;2023-05-10T08:30:46;17.13;;;9.38;;
59169;SDS011;52474;52.236;5.114;2023-05-10T08:37:51;20.80;;;11.07;;
59169;SDS011;52474;52.236;5.114;2023-05-10T08:40:17;18.33;;;10.32;;
59169;SDS011;52474;52.236;5.114;2023-05-10T08:42:47;21.27;;;11.07;;
59169;SDS011;52474;52.236;5.114;2023-05-10T08:45:23;20.23;;;11.25;;
59169;SDS011;52474;52.236;5.114;2023-05-10T08:47:49;18.02;;;10.27;;
59169;SDS011;52474;52.236;5.114;2023-05-10T08:52:47;21.17;;;10.02;;
59169;SDS011;52474;52.236;5.114;2023-05-10T08:55:17;19.73;;;9.60;;
59169;SDS011;52474;52.236;5.114;2023-05-10T08:57:43;18.50;;;10.27;;
59169;SDS011;52474;52.236;5.114;2023-05-10T09:00:10;20.38;;;10.43;;
59169;SDS011;52474;52.236;5.114;2023-05-10T09:02:36;17.73;;;10.20;;
59169;SDS011;52474;52.236;5.114;2023-05-10T09:05:02;18.33;;;10.18;;
59169;SDS011;52474;52.236;5.114;2023-05-10T09:07:30;17.55;;;9.18;;
59169;SDS011;52474;52.236;5.114;2023-05-10T09:09:55;19.98;;;10.02;;
59169;SDS011;52474;52.236;5.114;2023-05-10T09:12:25;15.27;;;8.98;;
59169;SDS011;52474;52.236;5.114;2023-05-10T09:14:52;15.13;;;9.00;;
59169;SDS011;52474;52.236;5.114;2023-05-10T09:17:22;16.02;;;8.63;;
59169;SDS011;52474;52.236;5.114;2023-05-10T09:19:59;16.83;;;8.55;;
59169;SDS011;52474;52.236;5.114;2023-05-10T09:22:26;15.30;;;8.50;;
59169;SDS011;52474;52.236;5.114;2023-05-10T09:25:08;13.93;;;8.00;;
59169;SDS011;52474;52.236;5.114;2023-05-10T09:27:35;11.68;;;6.90;;
59169;SDS011;52474;52.236;5.114;2023-05-10T09:30:01;11.40;;;6.90;;
59169;SDS011;52474;52.236;5.114;2023-05-10T09:32:38;10.77;;;6.28;;
59169;SDS011;52474;52.236;5.114;2023-05-10T09:35:16;10.45;;;6.47;;
59169;SDS011;52474;52.236;5.114;2023-05-10T09:37:46;9.35;;;6.10;;
59169;SDS011;52474;52.236;5.114;2023-05-10T09:40:20;11.25;;;6.50;;
59169;SDS011;52474;52.236;5.114;2023-05-10T09:42:51;8.48;;;5.90;;
59169;SDS011;52474;52.236;5.114;2023-05-10T09:45:28;11.88;;;6.20;;
59169;SDS011;52474;52.236;5.114;2023-05-10T09:47:58;11.32;;;6.30;;
59169;SDS011;52474;52.236;5.114;2023-05-10T09:50:26;10.73;;;6.78;;
59169;SDS011;52474;52.236;5.114;2023-05-10T09:52:52;12.73;;;6.35;;
59169;SDS011;52474;52.236;5.114;2023-05-10T09:55:26;9.88;;;5.53;;
59169;SDS011;52474;52.236;5.114;2023-05-10T09:58:10;8.65;;;5.30;;
59169;SDS011;52474;52.236;5.114;2023-05-10T10:00:45;9.13;;;5.32;;
59169;SDS011;52474;52.236;5.114;2023-05-10T10:03:18;12.30;;;5.18;;
59169;SDS011;52474;52.236;5.114;2023-05-10T10:05:46;8.27;;;5.50;;
59169;SDS011;52474;52.236;5.114;2023-05-10T10:08:13;7.65;;;4.70;;
59169;SDS011;52474;52.236;5.114;2023-05-10T10:10:40;8.77;;;5.57;;
59169;SDS011;52474;52.236;5.114;2023-05-10T10:13:09;8.70;;;5.03;;
59169;SDS011;52474;52.236;5.114;2023-05-10T10:15:35;7.97;;;5.18;;
59169;SDS011;52474;52.236;5.114;2023-05-10T10:18:01;8.05;;;5.00;;
59169;SDS011;52474;52.236;5.114;2023-05-10T10:20:29;9.18;;;4.97;;
59169;SDS011;52474;52.236;5.114;2023-05-10T10:22:55;7.22;;;4.03;;
59169;SDS011;52474;52.236;5.114;2023-05-10T10:25:21;6.45;;;4.38;;
59169;SDS011;52474;52.236;5.114;2023-05-10T10:32:47;7.53;;;4.18;;
59169;SDS011;52474;52.236;5.114;2023-05-10T10:35:17;7.78;;;4.68;;
59169;SDS011;52474;52.236;5.114;2023-05-10T10:37:46;6.25;;;4.13;;
59169;SDS011;52474;52.236;5.114;2023-05-10T10:40:32;7.82;;;4.38;;
59169;SDS011;52474;52.236;5.114;2023-05-10T10:48:49;5.13;;;3.43;;
59169;SDS011;52474;52.236;5.114;2023-05-10T10:51:36;7.43;;;4.10;;
59169;SDS011;52474;52.236;5.114;2023-05-10T10:54:09;8.98;;;4.22;;
59169;SDS011;52474;52.236;5.114;2023-05-10T10:56:35;8.05;;;4.28;;
59169;SDS011;52474;52.236;5.114;2023-05-10T10:59:01;7.70;;;4.82;;
59169;SDS011;52474;52.236;5.114;2023-05-10T11:01:32;7.28;;;4.15;;
59169;SDS011;52474;52.236;5.114;2023-05-10T11:06:31;9.32;;;5.55;;
59169;SDS011;52474;52.236;5.114;2023-05-10T11:08:59;9.35;;;4.65;;
59169;SDS011;52474;52.236;5.114;2023-05-10T11:11:35;5.75;;;3.90;;
59169;SDS011;52474;52.236;5.114;2023-05-10T11:14:02;6.93;;;3.88;;
59169;SDS011;52474;52.236;5.114;2023-05-10T11:16:29;8.13;;;4.47;;
59169;SDS011;52474;52.236;5.114;2023-05-10T11:19:10;8.23;;;4.25;;
59169;SDS011;52474;52.236;5.114;2023-05-10T11:24:16;8.40;;;5.13;;
59169;SDS011;52474;52.236;5.114;2023-05-10T11:26:50;7.75;;;4.45;;
59169;SDS011;52474;52.236;5.114;2023-05-10T11:29:17;7.78;;;3.85;;
59169;SDS011;52474;52.236;5.114;2023-05-10T11:31:43;5.40;;;3.55;;
59169;SDS011;52474;52.236;5.114;2023-05-10T11:36:52;7.03;;;4.45;;
59169;SDS011;52474;52.236;5.114;2023-05-10T11:39:19;8.38;;;4.68;;
59169;SDS011;52474;52.236;5.114;2023-05-10T11:41:47;8.20;;;4.60;;
59169;SDS011;52474;52.236;5.114;2023-05-10T11:44:40;7.88;;;4.70;;
59169;SDS011;52474;52.236;5.114;2023-05-10T11:47:07;11.50;;;5.03;;
59169;SDS011;52474;52.236;5.114;2023-05-10T11:49:33;7.05;;;4.30;;
59169;SDS011;52474;52.236;5.114;2023-05-10T11:52:08;7.10;;;4.10;;
59169;SDS011;52474;52.236;5.114;2023-05-10T11:54:36;7.57;;;4.30;;
59169;SDS011;52474;52.236;5.114;2023-05-10T11:57:02;9.23;;;4.20;;
59169;SDS011;52474;52.236;5.114;2023-05-10T11:59:28;10.45;;;4.50;;
59169;SDS011;52474;52.236;5.114;2023-05-10T12:01:54;8.10;;;4.60;;
59169;SDS011;52474;52.236;5.114;2023-05-10T12:04:20;9.35;;;6.13;;
59169;SDS011;52474;52.236;5.114;2023-05-10T12:06:46;9.50;;;4.45;;
59169;SDS011;52474;52.236;5.114;2023-05-10T12:09:21;7.22;;;4.40;;
59169;SDS011;52474;52.236;5.114;2023-05-10T12:11:47;7.05;;;4.38;;
59169;SDS011;52474;52.236;5.114;2023-05-10T12:14:12;8.40;;;4.82;;
59169;SDS011;52474;52.236;5.114;2023-05-10T12:16:42;8.93;;;4.35;;
59169;SDS011;52474;52.236;5.114;2023-05-10T12:19:08;7.50;;;4.40;;
59169;SDS011;52474;52.236;5.114;2023-05-10T12:21:34;8.68;;;4.28;;
59169;SDS011;52474;52.236;5.114;2023-05-10T12:24:03;8.40;;;4.60;;
59169;SDS011;52474;52.236;5.114;2023-05-10T12:26:30;7.20;;;4.22;;
59169;SDS011;52474;52.236;5.114;2023-05-10T12:34:34;5.45;;;3.38;;
59169;SDS011;52474;52.236;5.114;2023-05-10T12:37:02;7.60;;;3.80;;
59169;SDS011;52474;52.236;5.114;2023-05-10T12:39:41;7.80;;;5.18;;
59169;SDS011;52474;52.236;5.114;2023-05-10T12:42:08;11.02;;;5.60;;
59169;SDS011;52474;52.236;5.114;2023-05-10T12:44:34;7.95;;;5.82;;
59169;SDS011;52474;52.236;5.114;2023-05-10T12:47:01;11.15;;;6.55;;
59169;SDS011;52474;52.236;5.114;2023-05-10T12:49:26;11.40;;;6.75;;
59169;SDS011;52474;52.236;5.114;2023-05-10T12:51:52;13.45;;;7.55;;
59169;SDS011;52474;52.236;5.114;2023-05-10T12:54:18;12.18;;;7.32;;
59169;SDS011;52474;52.236;5.114;2023-05-10T12:56:44;11.80;;;7.30;;
59169;SDS011;52474;52.236;5.114;2023-05-10T12:59:09;13.05;;;7.13;;
59169;SDS011;52474;52.236;5.114;2023-05-10T13:01:35;12.75;;;7.55;;
59169;SDS011;52474;52.236;5.114;2023-05-10T13:04:01;10.98;;;6.63;;
59169;SDS011;52474;52.236;5.114;2023-05-10T13:06:26;13.40;;;6.82;;
59169;SDS011;52474;52.236;5.114;2023-05-10T13:08:52;14.68;;;8.10;;
59169;SDS011;52474;52.236;5.114;2023-05-10T13:11:18;14.20;;;8.65;;
59169;SDS011;52474;52.236;5.114;2023-05-10T13:13:45;13.48;;;8.52;;
59169;SDS011;52474;52.236;5.114;2023-05-10T13:16:10;16.63;;;9.25;;
59169;SDS011;52474;52.236;5.114;2023-05-10T13:18:36;14.75;;;8.32;;
59169;SDS011;52474;52.236;5.114;2023-05-10T13:21:02;16.20;;;8.27;;
59169;SDS011;52474;52.236;5.114;2023-05-10T13:23:30;18.35;;;9.40;;
59169;SDS011;52474;52.236;5.114;2023-05-10T13:25:56;18.08;;;8.68;;
59169;SDS011;52474;52.236;5.114;2023-05-10T13:28:22;19.85;;;9.57;;
59169;SDS011;52474;52.236;5.114;2023-05-10T13:30:50;18.80;;;9.10;;
59169;SDS011;52474;52.236;5.114;2023-05-10T13:33:15;16.75;;;8.93;;
59169;SDS011;52474;52.236;5.114;2023-05-10T13:35:41;20.13;;;9.35;;
59169;SDS011;52474;52.236;5.114;2023-05-10T13:38:07;19.80;;;9.75;;
59169;SDS011;52474;52.236;5.114;2023-05-10T13:40:33;17.83;;;8.88;;
59169;SDS011;52474;52.236;5.114;2023-05-10T13:42:59;14.70;;;8.00;;
59169;SDS011;52474;52.236;5.114;2023-05-10T13:45:25;15.27;;;8.30;;
59169;SDS011;52474;52.236;5.114;2023-05-10T13:47:51;11.88;;;6.97;;
59169;SDS011;52474;52.236;5.114;2023-05-10T13:50:17;12.18;;;6.72;;
59169;SDS011;52474;52.236;5.114;2023-05-10T13:52:43;11.13;;;6.10;;
59169;SDS011;52474;52.236;5.114;2023-05-10T13:55:12;12.45;;;6.80;;
59169;SDS011;52474;52.236;5.114;2023-05-10T13:57:38;11.40;;;6.55;;
59169;SDS011;52474;52.236;5.114;2023-05-10T14:00:04;16.58;;;7.13;;
59169;SDS011;52474;52.236;5.114;2023-05-10T14:02:33;13.07;;;7.07;;
59169;SDS011;52474;52.236;5.114;2023-05-10T14:04:59;13.70;;;6.88;;
59169;SDS011;52474;52.236;5.114;2023-05-10T14:07:25;11.23;;;6.28;;
59169;SDS011;52474;52.236;5.114;2023-05-10T14:09:51;12.73;;;6.82;;
59169;SDS011;52474;52.236;5.114;2023-05-10T14:12:16;16.27;;;7.10;;
59169;SDS011;52474;52.236;5.114;2023-05-10T14:14:42;11.70;;;6.65;;
59169;SDS011;52474;52.236;5.114;2023-05-10T14:17:08;13.45;;;6.93;;
59169;SDS011;52474;52.236;5.114;2023-05-10T14:19:33;15.05;;;7.40;;
59169;SDS011;52474;52.236;5.114;2023-05-10T14:21:59;14.27;;;7.50;;
59169;SDS011;52474;52.236;5.114;2023-05-10T14:24:25;10.43;;;6.75;;
59169;SDS011;52474;52.236;5.114;2023-05-10T14:26:51;12.38;;;6.93;;
59169;SDS011;52474;52.236;5.114;2023-05-10T14:29:19;10.23;;;6.28;;
59169;SDS011;52474;52.236;5.114;2023-05-10T14:31:45;12.48;;;6.18;;
59169;SDS011;52474;52.236;5.114;2023-05-10T14:34:11;10.63;;;6.28;;
59169;SDS011;52474;52.236;5.114;2023-05-10T14:36:39;11.07;;;6.32;;
59169;SDS011;52474;52.236;5.114;2023-05-10T14:39:05;11.07;;;6.20;;
59169;SDS011;52474;52.236;5.114;2023-05-10T14:41:31;12.27;;;6.93;;
59169;SDS011;52474;52.236;5.114;2023-05-10T14:43:58;11.93;;;6.40;;
59169;SDS011;52474;52.236;5.114;2023-05-10T14:46:30;13.63;;;6.80;;
59169;SDS011;52474;52.236;5.114;2023-05-10T14:48:56;11.07;;;6.78;;
59169;SDS011;52474;52.236;5.114;2023-05-10T14:51:22;11.93;;;6.82;;
59169;SDS011;52474;52.236;5.114;2023-05-10T14:53:48;12.93;;;6.68;;
59169;SDS011;52474;52.236;5.114;2023-05-10T14:56:15;13.52;;;6.13;;
59169;SDS011;52474;52.236;5.114;2023-05-10T14:58:40;14.38;;;7.00;;
59169;SDS011;52474;52.236;5.114;2023-05-10T15:01:06;10.68;;;6.75;;
59169;SDS011;52474;52.236;5.114;2023-05-10T15:03:32;14.27;;;7.40;;
59169;SDS011;52474;52.236;5.114;2023-05-10T15:05:58;10.95;;;6.72;;
59169;SDS011;52474;52.236;5.114;2023-05-10T15:08:24;12.40;;;7.13;;
59169;SDS011;52474;52.236;5.114;2023-05-10T15:10:50;14.48;;;6.97;;
59169;SDS011;52474;52.236;5.114;2023-05-10T15:13:16;9.38;;;4.75;;
59169;SDS011;52474;52.236;5.114;2023-05-10T15:15:42;9.40;;;4.18;;
59169;SDS011;52474;52.236;5.114;2023-05-10T15:18:08;3.42;;;2.72;;